sensor_id;sensor_type;location;lat;lon;timestamp;P1;durP1;ratioP1;P2;durP2;ratioP2
5058;SDS011;2548;52.050;11.036;2022-10-03T00:00:11;20.58;;;4.88;;
5058;SDS011;2548;52.050;11.036;2022-10-03T00:02:47;23.05;;;3.97;;
5058;SDS011;2548;52.050;11.036;2022-10-03T00:05:40;18.27;;;3.67;;
5058;SDS011;2548;52.050;11.036;2022-10-03T00:08:24;28.10;;;5.45;;
5058;SDS011;2548;52.050;11.036;2022-10-03T00:11:01;23.35;;;4.88;;
5058;SDS011;2548;52.050;11.036;2022-10-03T00:13:37;30.67;;;5.18;;
5058;SDS011;2548;52.050;11.036;2022-10-03T00:16:12;23.63;;;5.32;;
5058;SDS011;2548;52.050;11.036;2022-10-03T00:18:46;31.60;;;4.63;;
5058;SDS011;2548;52.050;11.036;2022-10-03T00:21:25;29.65;;;4.70;;
5058;SDS011;2548;52.050;11.036;2022-10-03T00:24:08;32.65;;;5.88;;
5058;SDS011;2548;52.050;11.036;2022-10-03T00:26:48;19.17;;;4.65;;
5058;SDS011;2548;52.050;11.036;2022-10-03T00:29:23;14.13;;;4.60;;
5058;SDS011;2548;52.050;11.036;2022-10-03T00:32:05;21.33;;;5.05;;
5058;SDS011;2548;52.050;11.036;2022-10-03T00:34:45;24.95;;;5.93;;
5058;SDS011;2548;52.050;11.036;2022-10-03T00:37:23;26.02;;;5.07;;
5058;SDS011;2548;52.050;11.036;2022-10-03T00:46:18;15.00;;;3.65;;
5058;SDS011;2548;52.050;11.036;2022-10-03T00:52:14;26.73;;;3.95;;
5058;SDS011;2548;52.050;11.036;2022-10-03T00:54:54;25.25;;;4.50;;
5058;SDS011;2548;52.050;11.036;2022-10-03T00:57:37;15.05;;;2.85;;
5058;SDS011;2548;52.050;11.036;2022-10-03T01:00:23;22.30;;;3.15;;
5058;SDS011;2548;52.050;11.036;2022-10-03T01:02:58;18.33;;;3.40;;
5058;SDS011;2548;52.050;11.036;2022-10-03T01:05:42;16.27;;;3.15;;
5058;SDS011;2548;52.050;11.036;2022-10-03T01:08:25;25.38;;;3.63;;
5058;SDS011;2548;52.050;11.036;2022-10-03T01:11:08;22.00;;;4.30;;
5058;SDS011;2548;52.050;11.036;2022-10-03T01:13:50;21.02;;;3.28;;
5058;SDS011;2548;52.050;11.036;2022-10-03T01:16:33;18.67;;;3.42;;
5058;SDS011;2548;52.050;11.036;2022-10-03T01:19:15;14.65;;;3.55;;
5058;SDS011;2548;52.050;11.036;2022-10-03T01:21:58;12.93;;;2.85;;
5058;SDS011;2548;52.050;11.036;2022-10-03T01:24:45;18.65;;;2.88;;
5058;SDS011;2548;52.050;11.036;2022-10-03T01:27:23;15.55;;;2.38;;
5058;SDS011;2548;52.050;11.036;2022-10-03T01:29:59;17.92;;;3.90;;
5058;SDS011;2548;52.050;11.036;2022-10-03T01:32:48;21.65;;;2.50;;
5058;SDS011;2548;52.050;11.036;2022-10-03T01:35:26;15.60;;;3.55;;
5058;SDS011;2548;52.050;11.036;2022-10-03T01:38:04;19.67;;;4.28;;
5058;SDS011;2548;52.050;11.036;2022-10-03T01:40:41;18.73;;;3.75;;
5058;SDS011;2548;52.050;11.036;2022-10-03T01:43:16;25.08;;;3.33;;
5058;SDS011;2548;52.050;11.036;2022-10-03T01:45:51;27.02;;;4.20;;
5058;SDS011;2548;52.050;11.036;2022-10-03T01:48:27;16.25;;;3.30;;
5058;SDS011;2548;52.050;11.036;2022-10-03T01:51:02;13.60;;;3.42;;
5058;SDS011;2548;52.050;11.036;2022-10-03T01:53:42;13.57;;;3.60;;
5058;SDS011;2548;52.050;11.036;2022-10-03T01:56:23;21.92;;;3.72;;
5058;SDS011;2548;52.050;11.036;2022-10-03T01:58:59;28.65;;;4.28;;
5058;SDS011;2548;52.050;11.036;2022-10-03T02:01:35;25.83;;;4.18;;
5058;SDS011;2548;52.050;11.036;2022-10-03T02:04:14;12.85;;;3.45;;
5058;SDS011;2548;52.050;11.036;2022-10-03T02:06:50;14.45;;;3.30;;
5058;SDS011;2548;52.050;11.036;2022-10-03T02:09:26;33.28;;;4.65;;
5058;SDS011;2548;52.050;11.036;2022-10-03T02:12:01;24.88;;;5.68;;
5058;SDS011;2548;52.050;11.036;2022-10-03T02:14:38;28.27;;;5.07;;
5058;SDS011;2548;52.050;11.036;2022-10-03T02:17:21;28.75;;;3.97;;
5058;SDS011;2548;52.050;11.036;2022-10-03T02:19:59;21.80;;;4.97;;
5058;SDS011;2548;52.050;11.036;2022-10-03T02:22:33;22.67;;;4.50;;
5058;SDS011;2548;52.050;11.036;2022-10-03T02:25:07;19.67;;;4.35;;
5058;SDS011;2548;52.050;11.036;2022-10-03T02:27:46;19.52;;;4.00;;
5058;SDS011;2548;52.050;11.036;2022-10-03T02:30:41;13.32;;;3.20;;
5058;SDS011;2548;52.050;11.036;2022-10-03T02:33:28;26.95;;;4.30;;
5058;SDS011;2548;52.050;11.036;2022-10-03T02:36:24;21.25;;;4.53;;
5058;SDS011;2548;52.050;11.036;2022-10-03T02:42:28;18.17;;;3.97;;
5058;SDS011;2548;52.050;11.036;2022-10-03T02:51:56;21.75;;;5.63;;
5058;SDS011;2548;52.050;11.036;2022-10-03T03:00:45;22.48;;;3.97;;
5058;SDS011;2548;52.050;11.036;2022-10-03T03:06:41;8.93;;;3.03;;
5058;SDS011;2548;52.050;11.036;2022-10-03T03:09:40;8.43;;;3.47;;
5058;SDS011;2548;52.050;11.036;2022-10-03T03:16:03;23.27;;;5.40;;
5058;SDS011;2548;52.050;11.036;2022-10-03T03:19:04;24.80;;;4.50;;
5058;SDS011;2548;52.050;11.036;2022-10-03T03:21:56;22.02;;;4.97;;
5058;SDS011;2548;52.050;11.036;2022-10-03T03:24:46;18.05;;;4.88;;
5058;SDS011;2548;52.050;11.036;2022-10-03T03:27:33;13.60;;;5.28;;
5058;SDS011;2548;52.050;11.036;2022-10-03T03:30:09;14.20;;;4.88;;
5058;SDS011;2548;52.050;11.036;2022-10-03T03:32:44;13.45;;;5.85;;
5058;SDS011;2548;52.050;11.036;2022-10-03T03:35:25;19.65;;;5.25;;
5058;SDS011;2548;52.050;11.036;2022-10-03T03:38:05;25.55;;;6.78;;
5058;SDS011;2548;52.050;11.036;2022-10-03T03:40:44;17.60;;;6.60;;
5058;SDS011;2548;52.050;11.036;2022-10-03T03:43:34;26.73;;;7.50;;
5058;SDS011;2548;52.050;11.036;2022-10-03T03:46:15;29.25;;;7.05;;
5058;SDS011;2548;52.050;11.036;2022-10-03T03:51:54;22.92;;;6.80;;
5058;SDS011;2548;52.050;11.036;2022-10-03T03:54:44;16.13;;;6.80;;
5058;SDS011;2548;52.050;11.036;2022-10-03T03:57:51;23.13;;;7.00;;
5058;SDS011;2548;52.050;11.036;2022-10-03T04:00:35;31.27;;;8.48;;
5058;SDS011;2548;52.050;11.036;2022-10-03T04:03:21;17.65;;;6.22;;
5058;SDS011;2548;52.050;11.036;2022-10-03T04:06:02;26.30;;;6.68;;
5058;SDS011;2548;52.050;11.036;2022-10-03T04:11:47;23.70;;;9.13;;
5058;SDS011;2548;52.050;11.036;2022-10-03T04:14:39;20.15;;;8.60;;
5058;SDS011;2548;52.050;11.036;2022-10-03T04:17:29;29.95;;;9.35;;
5058;SDS011;2548;52.050;11.036;2022-10-03T04:20:29;36.28;;;8.18;;
5058;SDS011;2548;52.050;11.036;2022-10-03T04:23:12;20.15;;;7.30;;
5058;SDS011;2548;52.050;11.036;2022-10-03T04:25:57;22.52;;;6.20;;
5058;SDS011;2548;52.050;11.036;2022-10-03T04:28:37;10.60;;;5.28;;
5058;SDS011;2548;52.050;11.036;2022-10-03T04:31:23;17.27;;;4.50;;
5058;SDS011;2548;52.050;11.036;2022-10-03T04:34:10;24.17;;;4.40;;
5058;SDS011;2548;52.050;11.036;2022-10-03T04:39:55;18.92;;;6.07;;
5058;SDS011;2548;52.050;11.036;2022-10-03T04:42:39;27.70;;;5.75;;
5058;SDS011;2548;52.050;11.036;2022-10-03T04:45:18;17.33;;;4.68;;
5058;SDS011;2548;52.050;11.036;2022-10-03T04:47:58;29.50;;;4.82;;
5058;SDS011;2548;52.050;11.036;2022-10-03T04:50:34;17.17;;;3.85;;
5058;SDS011;2548;52.050;11.036;2022-10-03T04:53:17;23.02;;;4.40;;
5058;SDS011;2548;52.050;11.036;2022-10-03T04:55:51;27.13;;;4.60;;
5058;SDS011;2548;52.050;11.036;2022-10-03T04:58:29;15.65;;;4.20;;
5058;SDS011;2548;52.050;11.036;2022-10-03T05:01:05;19.27;;;3.92;;
5058;SDS011;2548;52.050;11.036;2022-10-03T05:03:42;18.10;;;4.85;;
5058;SDS011;2548;52.050;11.036;2022-10-03T05:06:21;30.05;;;5.20;;
5058;SDS011;2548;52.050;11.036;2022-10-03T05:08:56;22.90;;;5.60;;
5058;SDS011;2548;52.050;11.036;2022-10-03T05:11:36;20.52;;;4.85;;
5058;SDS011;2548;52.050;11.036;2022-10-03T05:14:16;20.48;;;4.93;;
5058;SDS011;2548;52.050;11.036;2022-10-03T05:16:51;22.27;;;5.43;;
5058;SDS011;2548;52.050;11.036;2022-10-03T05:19:35;23.40;;;7.75;;
5058;SDS011;2548;52.050;11.036;2022-10-03T05:22:20;23.15;;;7.28;;
5058;SDS011;2548;52.050;11.036;2022-10-03T05:24:59;18.55;;;7.45;;
5058;SDS011;2548;52.050;11.036;2022-10-03T05:27:40;19.92;;;6.88;;
5058;SDS011;2548;52.050;11.036;2022-10-03T05:30:14;22.02;;;6.05;;
5058;SDS011;2548;52.050;11.036;2022-10-03T05:32:53;13.57;;;6.55;;
5058;SDS011;2548;52.050;11.036;2022-10-03T05:35:27;18.25;;;6.80;;
5058;SDS011;2548;52.050;11.036;2022-10-03T05:38:14;16.83;;;6.93;;
5058;SDS011;2548;52.050;11.036;2022-10-03T05:40:59;18.77;;;5.45;;
5058;SDS011;2548;52.050;11.036;2022-10-03T05:43:34;20.38;;;5.22;;
5058;SDS011;2548;52.050;11.036;2022-10-03T05:46:29;15.43;;;3.45;;
5058;SDS011;2548;52.050;11.036;2022-10-03T05:52:19;26.92;;;4.55;;
5058;SDS011;2548;52.050;11.036;2022-10-03T05:55:09;21.23;;;3.55;;
5058;SDS011;2548;52.050;11.036;2022-10-03T05:57:53;15.45;;;4.30;;
5058;SDS011;2548;52.050;11.036;2022-10-03T06:00:43;25.63;;;4.05;;
5058;SDS011;2548;52.050;11.036;2022-10-03T06:03:32;18.40;;;3.67;;
5058;SDS011;2548;52.050;11.036;2022-10-03T06:06:26;23.10;;;5.82;;
5058;SDS011;2548;52.050;11.036;2022-10-03T06:09:09;20.25;;;4.28;;
5058;SDS011;2548;52.050;11.036;2022-10-03T06:12:07;16.42;;;4.93;;
5058;SDS011;2548;52.050;11.036;2022-10-03T06:17:46;16.77;;;3.40;;
5058;SDS011;2548;52.050;11.036;2022-10-03T06:20:39;18.95;;;4.22;;
5058;SDS011;2548;52.050;11.036;2022-10-03T06:26:44;11.35;;;3.40;;
5058;SDS011;2548;52.050;11.036;2022-10-03T06:29:43;22.30;;;4.55;;
5058;SDS011;2548;52.050;11.036;2022-10-03T06:35:46;25.48;;;2.97;;
5058;SDS011;2548;52.050;11.036;2022-10-03T06:38:33;19.08;;;4.20;;
5058;SDS011;2548;52.050;11.036;2022-10-03T06:41:29;29.35;;;10.15;;
5058;SDS011;2548;52.050;11.036;2022-10-03T06:44:23;19.00;;;5.35;;
5058;SDS011;2548;52.050;11.036;2022-10-03T06:47:10;16.90;;;3.65;;
5058;SDS011;2548;52.050;11.036;2022-10-03T06:49:55;34.85;;;16.08;;
5058;SDS011;2548;52.050;11.036;2022-10-03T07:15:01;16.23;;;8.35;;
5058;SDS011;2548;52.050;11.036;2022-10-03T07:17:51;19.15;;;3.30;;
5058;SDS011;2548;52.050;11.036;2022-10-03T07:20:56;13.60;;;4.22;;
5058;SDS011;2548;52.050;11.036;2022-10-03T07:23:59;13.65;;;2.90;;
5058;SDS011;2548;52.050;11.036;2022-10-03T07:27:04;21.40;;;3.42;;
5058;SDS011;2548;52.050;11.036;2022-10-03T07:29:53;12.23;;;3.72;;
5058;SDS011;2548;52.050;11.036;2022-10-03T07:32:33;18.33;;;4.35;;
5058;SDS011;2548;52.050;11.036;2022-10-03T07:35:23;21.33;;;6.70;;
5058;SDS011;2548;52.050;11.036;2022-10-03T07:44:43;21.73;;;6.85;;
5058;SDS011;2548;52.050;11.036;2022-10-03T07:47:53;14.65;;;5.07;;
5058;SDS011;2548;52.050;11.036;2022-10-03T07:50:47;25.02;;;7.45;;
5058;SDS011;2548;52.050;11.036;2022-10-03T07:53:31;15.63;;;6.18;;
5058;SDS011;2548;52.050;11.036;2022-10-03T07:56:18;20.02;;;5.97;;
5058;SDS011;2548;52.050;11.036;2022-10-03T07:59:14;16.55;;;5.25;;
5058;SDS011;2548;52.050;11.036;2022-10-03T08:02:03;21.50;;;6.63;;
5058;SDS011;2548;52.050;11.036;2022-10-03T08:05:01;19.98;;;5.03;;
5058;SDS011;2548;52.050;11.036;2022-10-03T08:11:05;16.08;;;6.13;;
5058;SDS011;2548;52.050;11.036;2022-10-03T08:13:52;9.90;;;5.45;;
5058;SDS011;2548;52.050;11.036;2022-10-03T08:16:50;12.88;;;6.20;;
5058;SDS011;2548;52.050;11.036;2022-10-03T08:22:44;9.43;;;4.20;;
5058;SDS011;2548;52.050;11.036;2022-10-03T08:25:29;23.48;;;5.28;;
5058;SDS011;2548;52.050;11.036;2022-10-03T08:28:16;26.83;;;6.38;;
5058;SDS011;2548;52.050;11.036;2022-10-03T08:33:56;16.70;;;5.15;;
5058;SDS011;2548;52.050;11.036;2022-10-03T08:36:59;18.27;;;7.90;;
5058;SDS011;2548;52.050;11.036;2022-10-03T08:39:54;10.27;;;3.33;;
5058;SDS011;2548;52.050;11.036;2022-10-03T08:42:51;12.35;;;3.80;;
5058;SDS011;2548;52.050;11.036;2022-10-03T08:45:49;12.88;;;3.45;;
5058;SDS011;2548;52.050;11.036;2022-10-03T08:48:39;21.77;;;3.30;;
5058;SDS011;2548;52.050;11.036;2022-10-03T08:51:38;14.02;;;2.70;;
5058;SDS011;2548;52.050;11.036;2022-10-03T08:54:25;21.77;;;3.42;;
5058;SDS011;2548;52.050;11.036;2022-10-03T08:57:39;42.50;;;3.70;;
5058;SDS011;2548;52.050;11.036;2022-10-03T09:00:38;15.15;;;2.55;;
5058;SDS011;2548;52.050;11.036;2022-10-03T09:03:41;15.32;;;3.85;;
5058;SDS011;2548;52.050;11.036;2022-10-03T09:09:37;17.00;;;2.60;;
5058;SDS011;2548;52.050;11.036;2022-10-03T09:12:38;25.65;;;3.15;;
5058;SDS011;2548;52.050;11.036;2022-10-03T09:15:34;15.65;;;2.60;;
5058;SDS011;2548;52.050;11.036;2022-10-03T09:24:25;10.75;;;3.03;;
5058;SDS011;2548;52.050;11.036;2022-10-03T09:27:14;41.38;;;23.58;;
5058;SDS011;2548;52.050;11.036;2022-10-03T09:30:04;48.78;;;30.27;;
5058;SDS011;2548;52.050;11.036;2022-10-03T09:38:58;10.35;;;4.88;;
5058;SDS011;2548;52.050;11.036;2022-10-03T09:44:45;13.15;;;2.35;;
5058;SDS011;2548;52.050;11.036;2022-10-03T09:47:45;13.40;;;3.20;;
5058;SDS011;2548;52.050;11.036;2022-10-03T09:56:46;15.20;;;2.58;;
5058;SDS011;2548;52.050;11.036;2022-10-03T09:59:47;16.55;;;3.28;;
5058;SDS011;2548;52.050;11.036;2022-10-03T10:02:39;10.50;;;2.72;;
5058;SDS011;2548;52.050;11.036;2022-10-03T10:08:44;12.13;;;3.05;;
5058;SDS011;2548;52.050;11.036;2022-10-03T10:11:48;20.73;;;4.40;;
5058;SDS011;2548;52.050;11.036;2022-10-03T10:14:44;13.07;;;2.70;;
5058;SDS011;2548;52.050;11.036;2022-10-03T10:17:40;13.27;;;2.88;;
5058;SDS011;2548;52.050;11.036;2022-10-03T10:20:38;10.20;;;2.67;;
5058;SDS011;2548;52.050;11.036;2022-10-03T10:23:35;10.57;;;2.65;;
5058;SDS011;2548;52.050;11.036;2022-10-03T10:29:30;12.05;;;2.38;;
5058;SDS011;2548;52.050;11.036;2022-10-03T10:32:26;12.48;;;1.75;;
5058;SDS011;2548;52.050;11.036;2022-10-03T10:41:51;11.05;;;2.35;;
5058;SDS011;2548;52.050;11.036;2022-10-03T10:44:50;15.95;;;2.55;;
5058;SDS011;2548;52.050;11.036;2022-10-03T10:47:47;7.00;;;1.92;;
5058;SDS011;2548;52.050;11.036;2022-10-03T10:53:56;13.00;;;2.83;;
5058;SDS011;2548;52.050;11.036;2022-10-03T11:09:11;10.93;;;1.88;;
5058;SDS011;2548;52.050;11.036;2022-10-03T11:21:46;13.80;;;2.35;;
5058;SDS011;2548;52.050;11.036;2022-10-03T11:27:56;18.63;;;2.67;;
5058;SDS011;2548;52.050;11.036;2022-10-03T11:34:02;8.13;;;2.00;;
5058;SDS011;2548;52.050;11.036;2022-10-03T11:37:06;10.68;;;2.67;;
5058;SDS011;2548;52.050;11.036;2022-10-03T11:39:58;12.80;;;2.05;;
5058;SDS011;2548;52.050;11.036;2022-10-03T11:42:44;17.15;;;2.30;;
5058;SDS011;2548;52.050;11.036;2022-10-03T11:45:24;12.90;;;2.17;;
5058;SDS011;2548;52.050;11.036;2022-10-03T11:48:03;11.23;;;2.53;;
5058;SDS011;2548;52.050;11.036;2022-10-03T11:50:53;10.48;;;2.08;;
5058;SDS011;2548;52.050;11.036;2022-10-03T11:53:43;12.18;;;3.90;;
5058;SDS011;2548;52.050;11.036;2022-10-03T11:56:17;10.20;;;2.10;;
5058;SDS011;2548;52.050;11.036;2022-10-03T11:58:57;9.70;;;2.35;;
5058;SDS011;2548;52.050;11.036;2022-10-03T12:01:53;4.68;;;2.25;;
5058;SDS011;2548;52.050;11.036;2022-10-03T12:04:35;7.15;;;1.63;;
5058;SDS011;2548;52.050;11.036;2022-10-03T12:07:22;6.15;;;1.60;;
5058;SDS011;2548;52.050;11.036;2022-10-03T12:10:24;4.30;;;1.45;;
5058;SDS011;2548;52.050;11.036;2022-10-03T12:13:05;5.80;;;1.35;;
5058;SDS011;2548;52.050;11.036;2022-10-03T12:15:40;13.65;;;2.33;;
5058;SDS011;2548;52.050;11.036;2022-10-03T12:18:14;10.15;;;1.52;;
5058;SDS011;2548;52.050;11.036;2022-10-03T12:20:55;7.88;;;1.38;;
5058;SDS011;2548;52.050;11.036;2022-10-03T12:23:37;8.43;;;1.45;;
5058;SDS011;2548;52.050;11.036;2022-10-03T12:26:24;2.88;;;1.20;;
5058;SDS011;2548;52.050;11.036;2022-10-03T12:28:58;4.28;;;1.60;;
5058;SDS011;2548;52.050;11.036;2022-10-03T12:31:28;7.55;;;2.25;;
5058;SDS011;2548;52.050;11.036;2022-10-03T12:34:07;7.22;;;1.52;;
5058;SDS011;2548;52.050;11.036;2022-10-03T12:36:50;3.10;;;1.08;;
5058;SDS011;2548;52.050;11.036;2022-10-03T12:39:30;6.65;;;1.60;;
5058;SDS011;2548;52.050;11.036;2022-10-03T12:42:11;4.10;;;1.50;;
5058;SDS011;2548;52.050;11.036;2022-10-03T12:44:53;11.32;;;2.03;;
5058;SDS011;2548;52.050;11.036;2022-10-03T12:47:27;5.57;;;1.38;;
5058;SDS011;2548;52.050;11.036;2022-10-03T12:50:02;8.80;;;1.25;;
5058;SDS011;2548;52.050;11.036;2022-10-03T12:52:41;7.55;;;2.13;;
5058;SDS011;2548;52.050;11.036;2022-10-03T12:55:18;9.52;;;1.63;;
5058;SDS011;2548;52.050;11.036;2022-10-03T12:57:55;5.30;;;1.80;;
5058;SDS011;2548;52.050;11.036;2022-10-03T13:00:31;4.47;;;1.30;;
5058;SDS011;2548;52.050;11.036;2022-10-03T13:03:09;5.43;;;1.80;;
5058;SDS011;2548;52.050;11.036;2022-10-03T13:05:54;7.90;;;1.60;;
5058;SDS011;2548;52.050;11.036;2022-10-03T13:08:53;5.88;;;1.60;;
5058;SDS011;2548;52.050;11.036;2022-10-03T13:11:35;9.00;;;2.10;;
5058;SDS011;2548;52.050;11.036;2022-10-03T13:14:20;9.27;;;2.30;;
5058;SDS011;2548;52.050;11.036;2022-10-03T13:17:07;8.15;;;2.30;;
5058;SDS011;2548;52.050;11.036;2022-10-03T13:19:46;5.45;;;2.00;;
5058;SDS011;2548;52.050;11.036;2022-10-03T13:22:29;5.60;;;1.90;;
5058;SDS011;2548;52.050;11.036;2022-10-03T13:25:06;8.77;;;1.95;;
5058;SDS011;2548;52.050;11.036;2022-10-03T13:27:44;7.60;;;2.17;;
5058;SDS011;2548;52.050;11.036;2022-10-03T13:30:18;9.23;;;1.98;;
5058;SDS011;2548;52.050;11.036;2022-10-03T13:32:49;2.78;;;2.00;;
5058;SDS011;2548;52.050;11.036;2022-10-03T13:35:33;6.15;;;1.90;;
5058;SDS011;2548;52.050;11.036;2022-10-03T13:38:32;11.40;;;2.13;;
5058;SDS011;2548;52.050;11.036;2022-10-03T13:41:20;2.63;;;1.73;;
5058;SDS011;2548;52.050;11.036;2022-10-03T13:43:56;11.35;;;2.10;;
5058;SDS011;2548;52.050;11.036;2022-10-03T13:46:32;8.68;;;1.65;;
5058;SDS011;2548;52.050;11.036;2022-10-03T13:49:11;17.70;;;3.08;;
5058;SDS011;2548;52.050;11.036;2022-10-03T13:51:47;12.43;;;2.70;;
5058;SDS011;2548;52.050;11.036;2022-10-03T13:54:23;9.95;;;2.03;;
5058;SDS011;2548;52.050;11.036;2022-10-03T13:57:14;14.25;;;2.00;;
5058;SDS011;2548;52.050;11.036;2022-10-03T13:59:55;6.65;;;2.05;;
5058;SDS011;2548;52.050;11.036;2022-10-03T14:02:42;6.28;;;1.40;;
5058;SDS011;2548;52.050;11.036;2022-10-03T14:05:43;7.90;;;1.40;;
5058;SDS011;2548;52.050;11.036;2022-10-03T14:08:45;13.23;;;2.58;;
5058;SDS011;2548;52.050;11.036;2022-10-03T14:11:24;9.13;;;1.70;;
5058;SDS011;2548;52.050;11.036;2022-10-03T14:17:07;7.65;;;1.63;;
5058;SDS011;2548;52.050;11.036;2022-10-03T14:19:44;11.55;;;1.73;;
5058;SDS011;2548;52.050;11.036;2022-10-03T14:22:31;4.10;;;1.85;;
5058;SDS011;2548;52.050;11.036;2022-10-03T14:25:11;10.23;;;2.33;;
5058;SDS011;2548;52.050;11.036;2022-10-03T14:27:49;6.93;;;2.03;;
5058;SDS011;2548;52.050;11.036;2022-10-03T14:30:19;5.53;;;1.70;;
5058;SDS011;2548;52.050;11.036;2022-10-03T14:32:53;3.95;;;1.38;;
5058;SDS011;2548;52.050;11.036;2022-10-03T14:35:39;4.30;;;1.25;;
5058;SDS011;2548;52.050;11.036;2022-10-03T14:38:26;9.30;;;1.90;;
5058;SDS011;2548;52.050;11.036;2022-10-03T14:41:23;4.95;;;1.55;;
5058;SDS011;2548;52.050;11.036;2022-10-03T14:44:16;9.07;;;1.58;;
5058;SDS011;2548;52.050;11.036;2022-10-03T14:46:49;6.18;;;1.55;;
5058;SDS011;2548;52.050;11.036;2022-10-03T14:49:22;11.25;;;2.03;;
5058;SDS011;2548;52.050;11.036;2022-10-03T14:51:57;9.05;;;1.55;;
5058;SDS011;2548;52.050;11.036;2022-10-03T14:54:28;6.88;;;2.20;;
5058;SDS011;2548;52.050;11.036;2022-10-03T14:57:11;11.68;;;2.17;;
5058;SDS011;2548;52.050;11.036;2022-10-03T14:59:51;11.30;;;1.70;;
5058;SDS011;2548;52.050;11.036;2022-10-03T15:02:25;16.15;;;3.38;;
5058;SDS011;2548;52.050;11.036;2022-10-03T15:05:00;13.25;;;1.95;;
5058;SDS011;2548;52.050;11.036;2022-10-03T15:07:35;10.63;;;1.65;;
5058;SDS011;2548;52.050;11.036;2022-10-03T15:10:07;3.30;;;1.45;;
5058;SDS011;2548;52.050;11.036;2022-10-03T15:12:37;4.28;;;1.30;;
5058;SDS011;2548;52.050;11.036;2022-10-03T15:15:12;5.68;;;1.88;;
5058;SDS011;2548;52.050;11.036;2022-10-03T15:17:45;7.55;;;2.38;;
5058;SDS011;2548;52.050;11.036;2022-10-03T15:20:16;5.82;;;1.65;;
5058;SDS011;2548;52.050;11.036;2022-10-03T15:22:52;2.80;;;1.58;;
5058;SDS011;2548;52.050;11.036;2022-10-03T15:25:25;7.57;;;1.80;;
5058;SDS011;2548;52.050;11.036;2022-10-03T15:27:55;6.70;;;1.90;;
5058;SDS011;2548;52.050;11.036;2022-10-03T15:30:27;7.15;;;1.85;;
5058;SDS011;2548;52.050;11.036;2022-10-03T15:33:02;9.18;;;1.90;;
5058;SDS011;2548;52.050;11.036;2022-10-03T15:35:37;5.45;;;1.38;;
5058;SDS011;2548;52.050;11.036;2022-10-03T15:38:10;5.82;;;1.88;;
5058;SDS011;2548;52.050;11.036;2022-10-03T15:40:44;5.95;;;1.35;;
5058;SDS011;2548;52.050;11.036;2022-10-03T15:43:25;9.13;;;2.25;;
5058;SDS011;2548;52.050;11.036;2022-10-03T15:46:00;3.17;;;1.30;;
5058;SDS011;2548;52.050;11.036;2022-10-03T15:48:32;6.15;;;1.73;;
5058;SDS011;2548;52.050;11.036;2022-10-03T15:51:01;6.43;;;1.73;;
5058;SDS011;2548;52.050;11.036;2022-10-03T15:53:33;5.90;;;1.23;;
5058;SDS011;2548;52.050;11.036;2022-10-03T15:56:07;15.95;;;2.67;;
5058;SDS011;2548;52.050;11.036;2022-10-03T15:58:42;6.45;;;2.20;;
5058;SDS011;2548;52.050;11.036;2022-10-03T16:01:18;11.18;;;1.88;;
5058;SDS011;2548;52.050;11.036;2022-10-03T16:03:49;6.78;;;1.38;;
5058;SDS011;2548;52.050;11.036;2022-10-03T16:06:20;8.25;;;1.98;;
5058;SDS011;2548;52.050;11.036;2022-10-03T16:08:57;6.25;;;2.40;;
5058;SDS011;2548;52.050;11.036;2022-10-03T16:11:30;7.78;;;1.70;;
5058;SDS011;2548;52.050;11.036;2022-10-03T16:14:10;4.00;;;1.10;;
5058;SDS011;2548;52.050;11.036;2022-10-03T16:16:46;11.38;;;1.85;;
5058;SDS011;2548;52.050;11.036;2022-10-03T16:19:22;7.10;;;1.50;;
5058;SDS011;2548;52.050;11.036;2022-10-03T16:22:03;3.80;;;1.10;;
5058;SDS011;2548;52.050;11.036;2022-10-03T16:24:40;5.72;;;1.60;;
5058;SDS011;2548;52.050;11.036;2022-10-03T16:27:15;6.88;;;1.45;;
5058;SDS011;2548;52.050;11.036;2022-10-03T16:29:51;4.25;;;1.33;;
5058;SDS011;2548;52.050;11.036;2022-10-03T16:32:26;6.90;;;1.23;;
5058;SDS011;2548;52.050;11.036;2022-10-03T16:34:57;4.70;;;1.60;;
5058;SDS011;2548;52.050;11.036;2022-10-03T16:37:29;8.38;;;1.55;;
5058;SDS011;2548;52.050;11.036;2022-10-03T16:40:00;5.45;;;1.98;;
5058;SDS011;2548;52.050;11.036;2022-10-03T16:42:34;6.55;;;2.50;;
5058;SDS011;2548;52.050;11.036;2022-10-03T16:45:17;8.82;;;2.25;;
5058;SDS011;2548;52.050;11.036;2022-10-03T16:47:52;4.20;;;2.03;;
5058;SDS011;2548;52.050;11.036;2022-10-03T16:50:41;13.45;;;2.75;;
5058;SDS011;2548;52.050;11.036;2022-10-03T16:53:12;4.70;;;1.75;;
5058;SDS011;2548;52.050;11.036;2022-10-03T16:55:44;8.00;;;2.13;;
5058;SDS011;2548;52.050;11.036;2022-10-03T16:58:17;6.20;;;2.40;;
5058;SDS011;2548;52.050;11.036;2022-10-03T17:00:51;7.65;;;1.70;;
5058;SDS011;2548;52.050;11.036;2022-10-03T17:03:25;8.77;;;2.33;;
5058;SDS011;2548;52.050;11.036;2022-10-03T17:05:57;8.00;;;1.52;;
5058;SDS011;2548;52.050;11.036;2022-10-03T17:08:30;6.80;;;1.80;;
5058;SDS011;2548;52.050;11.036;2022-10-03T17:11:03;7.10;;;1.70;;
5058;SDS011;2548;52.050;11.036;2022-10-03T17:13:38;3.70;;;1.65;;
5058;SDS011;2548;52.050;11.036;2022-10-03T17:16:12;3.83;;;1.27;;
5058;SDS011;2548;52.050;11.036;2022-10-03T17:18:53;5.82;;;1.30;;
5058;SDS011;2548;52.050;11.036;2022-10-03T17:21:29;5.25;;;1.67;;
5058;SDS011;2548;52.050;11.036;2022-10-03T17:24:00;2.67;;;1.10;;
5058;SDS011;2548;52.050;11.036;2022-10-03T17:26:37;6.05;;;1.40;;
5058;SDS011;2548;52.050;11.036;2022-10-03T17:29:09;5.07;;;1.85;;
5058;SDS011;2548;52.050;11.036;2022-10-03T17:31:44;7.55;;;1.23;;
5058;SDS011;2548;52.050;11.036;2022-10-03T17:34:21;1.95;;;1.80;;
5058;SDS011;2548;52.050;11.036;2022-10-03T17:39:58;7.88;;;1.55;;
5058;SDS011;2548;52.050;11.036;2022-10-03T17:42:40;10.10;;;2.13;;
5058;SDS011;2548;52.050;11.036;2022-10-03T17:45:15;8.30;;;1.80;;
5058;SDS011;2548;52.050;11.036;2022-10-03T17:48:08;8.60;;;1.38;;
5058;SDS011;2548;52.050;11.036;2022-10-03T17:50:47;8.82;;;2.17;;
5058;SDS011;2548;52.050;11.036;2022-10-03T17:53:24;5.65;;;1.88;;
5058;SDS011;2548;52.050;11.036;2022-10-03T17:55:56;4.97;;;1.80;;
5058;SDS011;2548;52.050;11.036;2022-10-03T17:58:29;16.15;;;2.25;;
5058;SDS011;2548;52.050;11.036;2022-10-03T18:01:05;5.50;;;1.60;;
5058;SDS011;2548;52.050;11.036;2022-10-03T18:03:43;7.85;;;1.88;;
5058;SDS011;2548;52.050;11.036;2022-10-03T18:09:22;6.95;;;2.00;;
5058;SDS011;2548;52.050;11.036;2022-10-03T18:11:56;4.53;;;1.50;;
5058;SDS011;2548;52.050;11.036;2022-10-03T18:14:42;8.02;;;1.50;;
5058;SDS011;2548;52.050;11.036;2022-10-03T18:17:21;5.20;;;2.78;;
5058;SDS011;2548;52.050;11.036;2022-10-03T18:20:11;3.55;;;1.10;;
5058;SDS011;2548;52.050;11.036;2022-10-03T18:22:54;7.53;;;1.50;;
5058;SDS011;2548;52.050;11.036;2022-10-03T18:25:28;5.18;;;2.33;;
5058;SDS011;2548;52.050;11.036;2022-10-03T18:28:17;3.20;;;1.30;;
5058;SDS011;2548;52.050;11.036;2022-10-03T18:30:49;1.80;;;1.63;;
5058;SDS011;2548;52.050;11.036;2022-10-03T18:33:26;10.20;;;4.97;;
5058;SDS011;2548;52.050;11.036;2022-10-03T18:36:00;5.90;;;3.30;;
5058;SDS011;2548;52.050;11.036;2022-10-03T18:38:37;10.43;;;3.58;;
5058;SDS011;2548;52.050;11.036;2022-10-03T18:41:13;16.42;;;7.43;;
5058;SDS011;2548;52.050;11.036;2022-10-03T18:43:44;12.02;;;3.35;;
5058;SDS011;2548;52.050;11.036;2022-10-03T18:46:19;6.25;;;3.10;;
5058;SDS011;2548;52.050;11.036;2022-10-03T18:48:56;15.82;;;3.38;;
5058;SDS011;2548;52.050;11.036;2022-10-03T18:51:31;7.65;;;3.45;;
5058;SDS011;2548;52.050;11.036;2022-10-03T18:54:04;9.57;;;2.83;;
5058;SDS011;2548;52.050;11.036;2022-10-03T18:56:58;18.52;;;7.95;;
5058;SDS011;2548;52.050;11.036;2022-10-03T18:59:42;19.45;;;7.80;;
5058;SDS011;2548;52.050;11.036;2022-10-03T19:02:21;18.20;;;8.13;;
5058;SDS011;2548;52.050;11.036;2022-10-03T19:04:58;13.02;;;6.07;;
5058;SDS011;2548;52.050;11.036;2022-10-03T19:07:42;9.88;;;5.32;;
5058;SDS011;2548;52.050;11.036;2022-10-03T19:10:27;8.75;;;4.15;;
5058;SDS011;2548;52.050;11.036;2022-10-03T19:13:04;6.47;;;3.08;;
5058;SDS011;2548;52.050;11.036;2022-10-03T19:16:05;6.85;;;2.05;;